METAR Data
IDs: Format: Raw Decoded Include TAF

Data at: 2120 UTC 19 Apr 2021

METAR for:KHCR (Heber City Muni, UT, US)
Text:KHCR 192115Z AUTO 27017G28KT 10SM SCT100 SCT120 16/M08 A2987 RMK AO2
Temperature: 16.0°C ( 61°F)
Dewpoint: -8.0°C ( 18°F) [RH = 18%]
Pressure (altimeter):29.87 inches Hg (1011.6 mb)
Winds:from the W (270 degrees) at 20 MPH (17 knots; 8.7 m/s) gusting to 32 MPH (28 knots; 14.4 m/s)
Visibility:10 or more sm (16+ km)
Ceiling:at least 12,000 feet AGL
Clouds: scattered clouds at 10000 feet AGL, scattered clouds at 12000 feet AGL
QC Flag:automated observation with no human augmentation